Terminal Aerodrome Forecast
Issued by NWS

Home | Current Version | Previous Version | Text Only | Print | Product List | Glossary On
Versions: 1 2 3 4 5 6 7 8 9 10 11 12 13 14 15 16 17 18 19 20 21 22 23 24 25 26 27 28 29
000
FTPA31 PHFO 252300
TAFJHM
TAF
PHJH 252339Z 2600/2624 22011KT P6SM FEW030 SCT050
     FM260500 15007KT P6SM FEW030 SCT050
     FM262100 22010KT P6SM SCT030
      AMD NOT SKED AFT 260400=

USA.gov is the U.S. government's official web portal to all federal, state and local government web resources and services.